createdAt,value
2018-09-04T00:00:16.975Z,21.64
2018-09-04T00:00:57.504Z,21.64
2018-09-04T00:01:38.013Z,21.56
2018-09-04T00:02:18.538Z,21.56
2018-09-04T00:02:59.065Z,21.44
2018-09-04T00:03:39.599Z,21.52
2018-09-04T00:04:20.103Z,21.58
2018-09-04T00:05:00.626Z,21.47
2018-09-04T00:05:41.130Z,21.5
2018-09-04T00:06:21.768Z,21.52
2018-09-04T00:07:02.290Z,21.42
2018-09-04T00:07:42.796Z,21.52
2018-09-04T00:08:23.319Z,21.44
2018-09-04T00:09:03.848Z,21.46
2018-09-04T00:09:44.367Z,21.59
2018-09-04T00:10:24.893Z,21.59
2018-09-04T00:11:05.422Z,21.65
2018-09-04T00:11:45.942Z,21.5
2018-09-04T00:12:26.455Z,21.53
2018-09-04T00:13:07.005Z,21.52
2018-09-04T00:13:47.530Z,21.53
2018-09-04T00:14:28.058Z,21.53
2018-09-04T00:15:08.585Z,21.56
2018-09-04T00:15:49.108Z,21.59
2018-09-04T00:16:29.636Z,21.5
2018-09-04T00:17:10.174Z,21.62
2018-09-04T00:17:50.724Z,21.61
2018-09-04T00:18:31.288Z,21.61
2018-09-04T00:19:11.802Z,21.61
2018-09-04T00:19:52.318Z,21.46
2018-09-04T00:20:32.859Z,21.58
2018-09-04T00:21:13.372Z,21.62
2018-09-04T00:21:53.881Z,21.58
2018-09-04T00:22:34.396Z,21.5
2018-09-04T00:23:14.938Z,21.49
2018-09-04T00:23:55.484Z,21.5
2018-09-04T00:24:36.005Z,21.58
2018-09-04T00:25:16.530Z,21.49
2018-09-04T00:25:57.073Z,21.5
2018-09-04T00:26:37.587Z,21.5
2018-09-04T00:27:18.084Z,21.54
2018-09-04T00:27:58.610Z,21.49
2018-09-04T00:28:39.135Z,21.54
2018-09-04T00:29:19.690Z,21.5
2018-09-04T00:30:00.190Z,21.5
2018-09-04T00:30:40.705Z,21.5
2018-09-04T00:31:21.218Z,21.46
2018-09-04T00:32:01.720Z,21.58
2018-09-04T00:32:42.232Z,21.46
2018-09-04T00:33:22.789Z,21.47
2018-09-04T00:34:03.301Z,21.43
2018-09-04T00:34:43.836Z,21.32
2018-09-04T00:35:24.360Z,21.34
2018-09-04T00:36:04.870Z,21.32
2018-09-04T00:36:45.438Z,21.37
2018-09-04T00:37:25.955Z,21.31
2018-09-04T00:38:06.493Z,21.35
2018-09-04T00:38:47.057Z,21.31
2018-09-04T00:39:27.576Z,21.17
2018-09-04T00:40:08.103Z,21.19
2018-09-04T00:40:48.619Z,21.16
2018-09-04T00:41:29.135Z,21.25
2018-09-04T00:42:09.643Z,21.13
2018-09-04T00:42:50.178Z,21.14
2018-09-04T00:43:30.677Z,21.28
2018-09-04T00:44:11.191Z,21.21
2018-09-04T00:44:51.727Z,21.17
2018-09-04T00:45:32.256Z,21.19
2018-09-04T00:46:12.787Z,21.17
2018-09-04T00:46:53.303Z,21.17
2018-09-04T00:47:33.887Z,21.06
2018-09-04T00:48:14.382Z,21.01
2018-09-04T00:48:54.932Z,21.04
2018-09-04T00:49:35.430Z,21.07
2018-09-04T00:50:15.928Z,21.01
2018-09-04T00:50:56.585Z,20.85
2018-09-04T00:51:37.117Z,20.88
2018-09-04T00:52:17.633Z,20.82
2018-09-04T00:52:58.152Z,20.87
2018-09-04T00:53:38.665Z,20.82
2018-09-04T00:54:19.205Z,20.8
2018-09-04T00:54:59.735Z,20.72
2018-09-04T00:55:40.256Z,20.77
2018-09-04T00:56:20.769Z,20.82
2018-09-04T00:57:01.305Z,20.84
2018-09-04T00:57:41.821Z,20.82
2018-09-04T00:58:22.334Z,20.8
2018-09-04T00:59:02.945Z,20.84
2018-09-04T00:59:43.370Z,20.8
2018-09-04T01:00:23.918Z,20.84
2018-09-04T01:01:04.431Z,20.87
2018-09-04T01:01:44.962Z,20.85
2018-09-04T01:02:25.515Z,20.85
2018-09-04T01:03:06.042Z,20.88
2018-09-04T01:03:46.563Z,20.97
2018-09-04T01:04:27.092Z,21.01
2018-09-04T01:05:07.616Z,21.01
2018-09-04T01:05:48.120Z,20.94
2018-09-04T01:06:28.639Z,20.98
2018-09-04T01:07:09.144Z,20.98
2018-09-04T01:07:49.661Z,21.07
2018-09-04T01:08:30.178Z,21.06
2018-09-04T01:09:10.711Z,20.92
2018-09-04T01:09:51.237Z,20.97
2018-09-04T01:10:31.790Z,20.94
2018-09-04T01:11:12.478Z,20.95
2018-09-04T01:11:53.017Z,20.99
2018-09-04T01:12:33.540Z,20.99
2018-09-04T01:13:14.056Z,20.98
2018-09-04T01:13:54.581Z,21.04
2018-09-04T01:14:35.106Z,21.04
2018-09-04T01:15:15.616Z,21.04
2018-09-04T01:15:56.178Z,21.03
2018-09-04T01:16:36.673Z,21.01
2018-09-04T01:17:17.181Z,20.94
2018-09-04T01:17:57.717Z,20.99
2018-09-04T01:18:38.255Z,20.99
2018-09-04T01:19:18.810Z,20.91
2018-09-04T01:19:59.350Z,20.92
2018-09-04T01:20:39.864Z,20.95
2018-09-04T01:21:20.403Z,20.99
2018-09-04T01:22:00.918Z,20.94
2018-09-04T01:22:41.432Z,20.99
2018-09-04T01:23:21.948Z,20.94
2018-09-04T01:24:02.482Z,20.92
2018-09-04T01:24:43.014Z,20.89
2018-09-04T01:25:23.552Z,20.88
2018-09-04T01:26:04.105Z,20.89
2018-09-04T01:26:44.629Z,20.82
2018-09-04T01:27:25.160Z,20.87
2018-09-04T01:28:05.691Z,20.88
2018-09-04T01:28:46.208Z,20.85
2018-09-04T01:29:26.731Z,20.79
2018-09-04T01:30:07.263Z,20.73
2018-09-04T01:30:47.803Z,20.87
2018-09-04T01:31:28.306Z,20.84
2018-09-04T01:32:08.827Z,20.84
2018-09-04T01:32:49.336Z,20.8
2018-09-04T01:33:29.841Z,20.82
2018-09-04T01:34:11.415Z,20.84
2018-09-04T01:34:51.937Z,20.84
2018-09-04T01:35:32.465Z,20.87
2018-09-04T01:36:12.975Z,20.8
2018-09-04T01:36:53.499Z,20.8
2018-09-04T01:37:34.048Z,20.7
2018-09-04T01:38:14.597Z,20.69
2018-09-04T01:38:55.178Z,20.69
2018-09-04T01:39:35.705Z,20.8
2018-09-04T01:40:16.235Z,20.76
2018-09-04T01:40:56.778Z,20.57
2018-09-04T01:41:37.292Z,20.69
2018-09-04T01:42:17.812Z,20.69
2018-09-04T01:42:58.359Z,20.72
2018-09-04T01:43:38.864Z,20.73
2018-09-04T01:44:19.413Z,20.73
2018-09-04T01:44:59.942Z,20.62
2018-09-04T01:45:40.480Z,20.67
2018-09-04T01:46:21.005Z,20.67
2018-09-04T01:47:01.513Z,20.64
2018-09-04T01:47:42.038Z,20.57
2018-09-04T01:48:22.590Z,20.55
2018-09-04T01:49:03.114Z,20.58
2018-09-04T01:49:43.652Z,20.59
2018-09-04T01:50:24.163Z,20.54
2018-09-04T01:51:04.673Z,20.59
2018-09-04T01:51:45.195Z,20.59
2018-09-04T01:52:25.720Z,20.67
2018-09-04T01:53:06.240Z,20.57
2018-09-04T01:53:46.753Z,20.62
2018-09-04T01:54:27.292Z,20.67
2018-09-04T01:55:07.817Z,20.61
2018-09-04T01:55:48.344Z,20.64
2018-09-04T01:56:28.865Z,20.59
2018-09-04T01:57:09.382Z,20.58
2018-09-04T01:57:49.916Z,20.57
2018-09-04T01:58:30.425Z,20.55
2018-09-04T01:59:10.969Z,20.57
2018-09-04T01:59:51.477Z,20.57
2018-09-04T02:00:32.028Z,20.52
2018-09-04T02:01:12.567Z,20.59
2018-09-04T02:01:53.104Z,20.5
2018-09-04T02:02:33.643Z,20.59
2018-09-04T02:03:14.179Z,20.58
2018-09-04T02:03:54.696Z,20.55
2018-09-04T02:04:35.220Z,20.57
2018-09-04T02:05:15.728Z,20.55
2018-09-04T02:05:56.307Z,20.47
2018-09-04T02:06:36.795Z,20.55
2018-09-04T02:07:17.310Z,20.57
2018-09-04T02:07:57.829Z,20.58
2018-09-04T02:08:38.363Z,20.58
2018-09-04T02:09:18.927Z,20.62
2018-09-04T02:09:59.438Z,20.58
2018-09-04T02:10:39.952Z,20.57
2018-09-04T02:11:20.464Z,20.58
2018-09-04T02:12:00.992Z,20.59
2018-09-04T02:12:41.531Z,20.58
2018-09-04T02:13:22.044Z,20.52
2018-09-04T02:14:02.555Z,20.58
2018-09-04T02:14:43.081Z,20.48
2018-09-04T02:15:23.606Z,20.59
2018-09-04T02:16:04.134Z,20.62
2018-09-04T02:16:44.644Z,20.57
2018-09-04T02:17:25.170Z,20.62
2018-09-04T02:18:05.691Z,20.61
2018-09-04T02:18:46.218Z,20.58
2018-09-04T02:19:26.751Z,20.61
2018-09-04T02:20:07.270Z,20.55
2018-09-04T02:20:47.799Z,20.58
2018-09-04T02:21:28.325Z,20.59
2018-09-04T02:22:08.858Z,20.5
2018-09-04T02:22:49.386Z,20.58
2018-09-04T02:23:29.896Z,20.57
2018-09-04T02:24:10.417Z,20.57
2018-09-04T02:24:50.938Z,20.52
2018-09-04T02:25:31.439Z,20.52
2018-09-04T02:26:11.961Z,20.48
2018-09-04T02:26:52.471Z,20.52
2018-09-04T02:27:33.002Z,20.5
2018-09-04T02:28:13.559Z,20.51
2018-09-04T02:28:54.083Z,20.55
2018-09-04T02:29:34.617Z,20.5
2018-09-04T02:30:15.140Z,20.51
2018-09-04T02:30:55.660Z,20.54
2018-09-04T02:31:36.177Z,20.52
2018-09-04T02:32:16.698Z,20.47
2018-09-04T02:32:57.323Z,20.48
2018-09-04T02:33:37.745Z,20.43
2018-09-04T02:34:18.293Z,20.38
2018-09-04T02:34:58.869Z,20.33
2018-09-04T02:35:39.335Z,20.48
2018-09-04T02:36:19.855Z,20.41
2018-09-04T02:37:00.376Z,20.42
2018-09-04T02:37:40.899Z,20.43
2018-09-04T02:38:22.189Z,20.39
2018-09-04T02:39:02.725Z,20.41
2018-09-04T02:39:43.240Z,20.41
2018-09-04T02:40:23.771Z,20.42
2018-09-04T02:41:04.289Z,20.5
2018-09-04T02:41:44.812Z,20.47
2018-09-04T02:42:25.355Z,20.39
2018-09-04T02:43:05.872Z,20.39
2018-09-04T02:43:46.396Z,20.39
2018-09-04T02:44:26.911Z,20.38
2018-09-04T02:45:07.420Z,20.42
2018-09-04T02:45:47.939Z,20.41
2018-09-04T02:46:28.453Z,20.42
2018-09-04T02:47:08.983Z,20.41
2018-09-04T02:47:49.503Z,20.42
2018-09-04T02:48:30.017Z,20.41
2018-09-04T02:49:10.551Z,20.39
2018-09-04T02:49:51.058Z,20.42
2018-09-04T02:50:31.770Z,20.51
2018-09-04T02:51:12.311Z,20.5
2018-09-04T02:51:52.833Z,20.41
2018-09-04T02:52:33.359Z,20.35
2018-09-04T02:53:13.878Z,20.33
2018-09-04T02:53:54.392Z,20.42
2018-09-04T02:54:34.910Z,20.36
2018-09-04T02:55:15.418Z,20.33
2018-09-04T02:55:55.936Z,20.36
2018-09-04T02:56:36.458Z,20.38
2018-09-04T02:57:16.957Z,20.31
2018-09-04T02:57:57.493Z,20.48
2018-09-04T02:58:38.014Z,20.41
2018-09-04T02:59:18.542Z,20.39
2018-09-04T02:59:59.055Z,20.35
2018-09-04T03:00:39.559Z,20.33
2018-09-04T03:01:20.095Z,20.35
2018-09-04T03:02:00.604Z,20.38
2018-09-04T03:02:41.118Z,20.36
2018-09-04T03:03:21.644Z,20.31
2018-09-04T03:04:02.173Z,20.29
2018-09-04T03:04:42.697Z,20.31
2018-09-04T03:05:23.222Z,20.33
2018-09-04T03:06:03.744Z,20.42
2018-09-04T03:06:44.256Z,20.5
2018-09-04T03:07:24.818Z,20.39
2018-09-04T03:08:05.336Z,20.36
2018-09-04T03:08:45.853Z,20.36
2018-09-04T03:09:26.383Z,20.35
2018-09-04T03:10:06.889Z,20.38
2018-09-04T03:10:47.413Z,20.32
2018-09-04T03:11:27.931Z,20.24
2018-09-04T03:12:08.444Z,20.33
2018-09-04T03:12:48.965Z,20.26
2018-09-04T03:13:29.577Z,20.21
2018-09-04T03:14:10.020Z,20.21
2018-09-04T03:14:50.516Z,20.28
2018-09-04T03:15:31.032Z,20.23
2018-09-04T03:16:11.596Z,20.2
2018-09-04T03:16:52.140Z,20.28
2018-09-04T03:17:32.658Z,20.28
2018-09-04T03:18:13.203Z,20.23
2018-09-04T03:18:54.289Z,20.23
2018-09-04T03:19:34.804Z,20.18
2018-09-04T03:20:15.319Z,20.17
2018-09-04T03:20:55.834Z,20.2
2018-09-04T03:21:36.359Z,20.17
2018-09-04T03:22:16.898Z,20.28
2018-09-04T03:22:57.456Z,20.16
2018-09-04T03:23:37.948Z,20.16
2018-09-04T03:24:18.508Z,20.16
2018-09-04T03:24:59.031Z,20.18
2018-09-04T03:25:39.562Z,20.18
2018-09-04T03:26:20.081Z,20.13
2018-09-04T03:27:00.633Z,20.06
2018-09-04T03:27:41.146Z,20.05
2018-09-04T03:28:21.655Z,20.06
2018-09-04T03:29:02.177Z,20.16
2018-09-04T03:29:42.704Z,20.1
2018-09-04T03:30:23.255Z,20.24
2018-09-04T03:31:03.783Z,20.06
2018-09-04T03:31:44.298Z,19.95
2018-09-04T03:32:24.810Z,19.94
2018-09-04T03:33:05.324Z,19.91
2018-09-04T03:33:45.850Z,19.92
2018-09-04T03:34:26.380Z,19.96
2018-09-04T03:35:06.889Z,19.95
2018-09-04T03:35:47.404Z,19.92
2018-09-04T03:36:27.922Z,19.95
2018-09-04T03:37:08.448Z,19.98
2018-09-04T03:37:48.965Z,19.96
2018-09-04T03:38:29.490Z,20.03
2018-09-04T03:39:10.017Z,19.95
2018-09-04T03:39:50.517Z,19.95
2018-09-04T03:40:31.037Z,20.06
2018-09-04T03:41:12.529Z,20.03
2018-09-04T03:41:53.042Z,19.96
2018-09-04T03:42:33.964Z,19.95
2018-09-04T03:43:14.421Z,19.96
2018-09-04T03:43:54.949Z,20.03
2018-09-04T03:44:35.496Z,19.98
2018-09-04T03:45:16.009Z,20.08
2018-09-04T03:45:56.632Z,20.06
2018-09-04T03:46:37.153Z,20.05
2018-09-04T03:47:17.676Z,20.08
2018-09-04T03:47:58.205Z,20.08
2018-09-04T03:49:56.664Z,19.92
2018-09-04T03:50:37.170Z,19.91
2018-09-04T03:51:17.683Z,19.95
2018-09-04T03:51:58.204Z,20.08
2018-09-04T03:52:38.944Z,20.08
2018-09-04T03:53:19.493Z,20.06
2018-09-04T03:54:00.057Z,19.96
2018-09-04T03:54:40.586Z,20.08
2018-09-04T03:55:21.085Z,19.96
2018-09-04T03:56:58.976Z,19.86
2018-09-04T03:57:39.476Z,19.66
2018-09-04T03:58:20.003Z,19.71
2018-09-04T03:59:00.534Z,19.86
2018-09-04T03:59:41.044Z,19.73
2018-09-04T04:00:21.569Z,19.78
2018-09-04T04:01:02.078Z,19.74
2018-09-04T04:01:42.597Z,19.68
2018-09-04T04:02:23.121Z,19.66
2018-09-04T04:03:03.652Z,19.66
2018-09-04T04:03:44.171Z,19.77
2018-09-04T04:04:24.699Z,19.74
2018-09-04T04:05:05.260Z,19.8
2018-09-04T04:05:45.853Z,19.84
2018-09-04T04:06:26.379Z,19.92
2018-09-04T04:07:06.890Z,19.87
2018-09-04T04:07:47.421Z,19.94
2018-09-04T04:08:27.942Z,19.92
2018-09-04T04:09:08.457Z,19.83
2018-09-04T04:09:48.956Z,19.91
2018-09-04T04:10:29.477Z,19.88
2018-09-04T04:11:10.013Z,19.87
2018-09-04T04:11:50.573Z,19.84
2018-09-04T04:12:31.107Z,19.87
2018-09-04T04:14:45.054Z,19.78
2018-09-04T04:15:25.575Z,19.77
2018-09-04T04:16:06.086Z,19.74
2018-09-04T04:16:46.610Z,19.78
2018-09-04T04:17:27.113Z,19.77
2018-09-04T04:18:07.634Z,19.76
2018-09-04T04:18:48.156Z,19.71
2018-09-04T04:19:28.667Z,19.73
2018-09-04T04:20:09.185Z,19.76
2018-09-04T04:20:49.697Z,19.78
2018-09-04T04:21:30.209Z,19.65
2018-09-04T04:22:10.723Z,19.69
2018-09-04T04:22:51.262Z,19.54
2018-09-04T04:23:31.781Z,19.56
2018-09-04T04:24:12.292Z,19.43
2018-09-04T04:24:52.805Z,19.43
2018-09-04T04:25:33.304Z,19.44
2018-09-04T04:26:13.823Z,19.44
2018-09-04T04:26:54.493Z,19.46
2018-09-04T04:27:35.023Z,19.43
2018-09-04T04:28:15.534Z,19.47
2018-09-04T04:28:56.044Z,19.37
2018-09-04T04:29:36.566Z,19.39
2018-09-04T04:30:17.084Z,19.37
2018-09-04T04:30:57.644Z,19.58
2018-09-04T04:31:38.138Z,19.63
2018-09-04T04:32:18.690Z,19.62
2018-09-04T04:32:59.217Z,19.56
2018-09-04T04:33:39.720Z,19.56
2018-09-04T04:34:20.227Z,19.59
2018-09-04T04:35:00.751Z,19.63
2018-09-04T04:35:41.275Z,19.61
2018-09-04T04:36:21.825Z,19.48
2018-09-04T04:37:02.346Z,19.58
2018-09-04T04:37:43.006Z,19.55
2018-09-04T04:38:23.379Z,19.55
2018-09-04T04:39:03.890Z,19.55
2018-09-04T04:39:44.403Z,19.58
2018-09-04T04:40:24.932Z,19.46
2018-09-04T04:41:05.439Z,19.47
2018-09-04T04:41:45.950Z,19.48
2018-09-04T04:42:26.484Z,19.41
2018-09-04T04:43:07.006Z,19.48
2018-09-04T04:43:47.528Z,19.36
2018-09-04T04:44:28.042Z,19.48
2018-09-04T04:45:08.555Z,19.33
2018-09-04T04:45:49.090Z,19.32
2018-09-04T04:46:29.603Z,19.46
2018-09-04T04:47:10.149Z,19.33
2018-09-04T04:47:50.736Z,19.36
2018-09-04T04:48:31.181Z,19.31
2018-09-04T04:49:11.698Z,19.33
2018-09-04T04:49:52.210Z,19.32
2018-09-04T04:50:32.825Z,19.39
2018-09-04T04:51:13.348Z,19.46
2018-09-04T04:51:53.888Z,19.47
2018-09-04T04:52:34.613Z,19.39
2018-09-04T04:53:15.128Z,19.37
2018-09-04T04:53:55.669Z,19.43
2018-09-04T04:54:36.179Z,19.46
2018-09-04T04:55:16.703Z,19.44
2018-09-04T04:55:57.254Z,19.43
2018-09-04T04:56:37.744Z,19.37
2018-09-04T04:57:18.313Z,19.36
2018-09-04T04:57:58.822Z,19.46
2018-09-04T04:58:39.327Z,19.39
2018-09-04T04:59:19.858Z,19.37
2018-09-04T05:00:00.381Z,19.44
2018-09-04T05:00:40.900Z,19.54
2018-09-04T05:01:21.419Z,19.5
2018-09-04T05:02:01.939Z,19.58
2018-09-04T05:02:42.463Z,19.44
2018-09-04T05:03:22.969Z,19.58
2018-09-04T05:04:03.485Z,19.65
2018-09-04T05:04:44.001Z,19.66
2018-09-04T05:05:24.548Z,19.65
2018-09-04T05:06:05.369Z,19.74
2018-09-04T05:06:45.903Z,19.63
2018-09-04T05:07:26.440Z,19.66
2018-09-04T05:08:06.961Z,19.76
2018-09-04T05:08:47.476Z,19.65
2018-09-04T05:09:28.306Z,19.63
2018-09-04T05:10:08.818Z,19.76
2018-09-04T05:10:49.317Z,19.71
2018-09-04T05:11:29.894Z,19.77
2018-09-04T05:12:10.350Z,19.77
2018-09-04T05:12:50.872Z,19.76
2018-09-04T05:13:31.389Z,19.77
2018-09-04T05:14:11.959Z,19.8
2018-09-04T05:14:52.478Z,19.92
2018-09-04T05:15:32.995Z,19.98
2018-09-04T05:16:13.515Z,20.05
2018-09-04T05:16:54.038Z,20.02
2018-09-04T05:17:34.534Z,20.08
2018-09-04T05:18:15.049Z,20.03
2018-09-04T05:18:55.566Z,20.08
2018-09-04T05:19:36.078Z,20.17
2018-09-04T05:20:16.597Z,20.24
2018-09-04T05:20:57.797Z,20.17
2018-09-04T05:21:37.725Z,20.21
2018-09-04T05:22:18.259Z,20.23
2018-09-04T05:22:58.800Z,20.32
2018-09-04T05:23:39.314Z,20.35
2018-09-04T05:24:19.831Z,20.33
2018-09-04T05:25:00.351Z,20.39
2018-09-04T05:25:40.860Z,20.36
2018-09-04T05:26:21.371Z,20.5
2018-09-04T05:27:01.933Z,20.51
2018-09-04T05:27:42.451Z,20.48
2018-09-04T05:28:22.977Z,20.48
2018-09-04T05:29:03.497Z,20.5
2018-09-04T05:29:44.016Z,20.55
2018-09-04T05:30:24.566Z,20.52
2018-09-04T05:31:05.088Z,20.36
2018-09-04T05:31:45.622Z,20.42
2018-09-04T05:32:26.136Z,20.47
2018-09-04T05:33:06.646Z,20.5
2018-09-04T05:33:47.190Z,20.54
2018-09-04T05:34:27.709Z,20.58
2018-09-04T05:35:08.225Z,20.61
2018-09-04T05:35:48.735Z,20.58
2018-09-04T05:36:29.255Z,20.62
2018-09-04T05:37:09.769Z,20.69
2018-09-04T05:37:50.284Z,20.61
2018-09-04T05:38:30.806Z,20.64
2018-09-04T05:39:11.326Z,20.61
2018-09-04T05:39:51.872Z,20.69
2018-09-04T05:40:32.379Z,20.57
2018-09-04T05:41:13.514Z,20.64
2018-09-04T05:41:54.053Z,20.69
2018-09-04T05:42:34.561Z,20.69
2018-09-04T05:43:15.080Z,20.73
2018-09-04T05:43:55.599Z,20.58
2018-09-04T05:44:36.120Z,20.58
2018-09-04T05:45:16.633Z,20.59
2018-09-04T05:45:57.171Z,20.61
2018-09-04T05:46:37.688Z,20.59
2018-09-04T05:47:18.210Z,20.62
2018-09-04T05:47:58.734Z,20.62
2018-09-04T05:48:39.241Z,20.57
2018-09-04T05:49:19.764Z,20.61
2018-09-04T05:50:00.327Z,20.67
2018-09-04T05:50:40.845Z,20.7
2018-09-04T05:51:21.345Z,20.66
2018-09-04T05:52:01.898Z,20.66
2018-09-04T05:52:42.432Z,20.62
2018-09-04T05:53:22.996Z,20.57
2018-09-04T05:54:03.576Z,20.57
2018-09-04T05:54:44.099Z,20.69
2018-09-04T05:55:24.643Z,20.69
2018-09-04T05:56:05.258Z,20.79
2018-09-04T05:56:45.772Z,20.82
2018-09-04T05:57:26.324Z,20.82
2018-09-04T05:58:06.849Z,20.87
2018-09-04T05:58:47.387Z,20.89
2018-09-04T05:59:27.891Z,20.88
2018-09-04T06:00:08.397Z,20.89
2018-09-04T06:00:48.920Z,20.89
2018-09-04T06:01:29.445Z,20.97
2018-09-04T06:02:09.951Z,20.97
2018-09-04T06:02:50.461Z,21.06
2018-09-04T06:03:31.004Z,21.09
2018-09-04T06:04:11.521Z,21.07
2018-09-04T06:04:52.044Z,21.14
2018-09-04T06:05:32.730Z,21.17
2018-09-04T06:06:13.254Z,21.16
2018-09-04T06:06:53.750Z,21.25
2018-09-04T06:07:34.267Z,21.22
2018-09-04T06:08:14.789Z,21.22
2018-09-04T06:08:55.471Z,21.32
2018-09-04T06:09:35.994Z,21.29
2018-09-04T06:10:16.513Z,21.35
2018-09-04T06:10:57.023Z,21.31
2018-09-04T06:11:37.537Z,21.37
2018-09-04T06:12:18.259Z,21.32
2018-09-04T06:12:58.766Z,21.37
2018-09-04T06:13:39.289Z,21.43
2018-09-04T06:14:19.790Z,21.5
2018-09-04T06:15:00.354Z,21.5
2018-09-04T06:15:40.890Z,21.47
2018-09-04T06:16:21.433Z,21.52
2018-09-04T06:17:01.946Z,21.49
2018-09-04T06:17:42.473Z,21.62
2018-09-04T06:18:23.022Z,21.64
2018-09-04T06:19:03.569Z,21.61
2018-09-04T06:19:44.174Z,21.59
2018-09-04T06:20:24.716Z,21.32
2018-09-04T06:21:05.228Z,21.47
2018-09-04T06:21:45.745Z,21.61
2018-09-04T06:22:26.275Z,21.65
2018-09-04T06:23:06.792Z,21.8
2018-09-04T06:23:47.315Z,21.72
2018-09-04T06:24:27.882Z,21.8
2018-09-04T06:25:08.407Z,21.72
2018-09-04T06:25:48.946Z,21.8
2018-09-04T06:26:29.449Z,21.82
2018-09-04T06:27:09.984Z,21.82
2018-09-04T06:27:50.533Z,21.82
2018-09-04T06:28:31.051Z,21.86
2018-09-04T06:29:11.608Z,21.82
2018-09-04T06:29:52.111Z,21.86
2018-09-04T06:30:32.669Z,21.75
2018-09-04T06:31:13.180Z,21.82
2018-09-04T06:31:53.707Z,21.77
2018-09-04T06:32:34.275Z,21.8
2018-09-04T06:33:14.776Z,21.72
2018-09-04T06:33:55.309Z,21.72
2018-09-04T06:34:35.877Z,21.77
2018-09-04T06:35:16.401Z,21.83
2018-09-04T06:35:56.923Z,21.75
2018-09-04T06:36:37.479Z,21.75
2018-09-04T06:37:18.084Z,21.79
2018-09-04T06:37:58.606Z,21.68
2018-09-04T06:38:39.177Z,21.69
2018-09-04T06:39:19.818Z,21.82
2018-09-04T06:40:00.327Z,21.8
2018-09-04T06:40:40.847Z,21.83
2018-09-04T06:41:21.367Z,21.77
2018-09-04T06:42:01.891Z,21.9
2018-09-04T06:42:42.433Z,21.72
2018-09-04T06:43:24.696Z,21.62
2018-09-04T06:44:05.228Z,21.67
2018-09-04T06:44:45.770Z,21.68
2018-09-04T06:45:26.293Z,21.71
2018-09-04T06:46:06.806Z,21.82
2018-09-04T06:46:47.337Z,21.8
2018-09-04T06:47:27.872Z,21.83
2018-09-04T06:48:08.411Z,21.71
2018-09-04T06:48:48.945Z,21.84
2018-09-04T06:49:29.491Z,21.9
2018-09-04T06:50:10.028Z,21.91
2018-09-04T06:50:50.554Z,21.91
2018-09-04T06:51:31.053Z,21.99
2018-09-04T06:52:11.560Z,21.94
2018-09-04T06:52:52.075Z,22.06
2018-09-04T06:53:32.582Z,21.96
2018-09-04T06:54:13.127Z,21.9
2018-09-04T06:54:53.635Z,22
2018-09-04T06:55:34.162Z,22
2018-09-04T06:56:14.705Z,22
2018-09-04T06:56:55.225Z,22.17
2018-09-04T06:57:35.741Z,22.24
2018-09-04T06:58:16.288Z,22.22
2018-09-04T06:58:56.796Z,22.36
2018-09-04T06:59:37.304Z,22.4
2018-09-04T07:01:30.419Z,22.39
2018-09-04T07:02:10.923Z,22.37
2018-09-04T07:02:51.450Z,22.57
2018-09-04T07:03:31.968Z,22.52
2018-09-04T07:04:12.501Z,22.58
2018-09-04T07:04:53.017Z,22.58
2018-09-04T07:05:33.568Z,22.68
2018-09-04T07:06:14.085Z,22.7
2018-09-04T07:06:54.619Z,22.68
2018-09-04T07:07:35.125Z,22.65
2018-09-04T07:08:15.674Z,22.65
2018-09-04T07:08:56.198Z,22.67
2018-09-04T07:09:36.727Z,22.75
2018-09-04T07:10:17.260Z,22.57
2018-09-04T07:10:57.781Z,22.6
2018-09-04T07:11:38.306Z,22.57
2018-09-04T07:12:18.818Z,22.65
2018-09-04T07:12:59.350Z,22.67
2018-09-04T07:13:39.844Z,22.67
2018-09-04T07:14:20.844Z,22.85
2018-09-04T07:15:01.384Z,22.67
2018-09-04T07:15:41.903Z,22.86
2018-09-04T07:16:22.437Z,22.82
2018-09-04T07:17:03.079Z,22.76
2018-09-04T07:17:43.515Z,22.88
2018-09-04T07:18:24.035Z,22.86
2018-09-04T07:19:04.550Z,22.94
2018-09-04T07:19:45.080Z,23.02
2018-09-04T07:20:25.596Z,23.12
2018-09-04T07:21:06.117Z,23.09
2018-09-04T07:21:46.637Z,23.17
2018-09-04T07:22:27.144Z,23.12
2018-09-04T07:23:07.667Z,23.19
2018-09-04T07:23:48.202Z,23.1
2018-09-04T07:24:28.707Z,23.25
2018-09-04T07:25:09.245Z,23.23
2018-09-04T07:25:49.785Z,23.31
2018-09-04T07:26:30.300Z,23.35
2018-09-04T07:27:10.878Z,23.32
2018-09-04T07:27:51.404Z,23.36
2018-09-04T07:28:31.922Z,23.43
2018-09-04T07:29:12.464Z,23.23
2018-09-04T07:29:53.012Z,23.22
2018-09-04T07:30:33.555Z,23.19
2018-09-04T07:31:14.109Z,23.28
2018-09-04T07:33:02.104Z,23.39
2018-09-04T07:33:42.615Z,23.38
2018-09-04T07:34:23.113Z,23.4
2018-09-04T07:35:03.638Z,23.46
2018-09-04T07:35:44.160Z,23.4
2018-09-04T07:36:24.748Z,23.32
2018-09-04T07:37:05.230Z,23.5
2018-09-04T07:37:45.763Z,23.31
2018-09-04T07:38:26.293Z,23.48
2018-09-04T07:39:06.806Z,23.47
2018-09-04T07:39:47.334Z,23.46
2018-09-04T07:40:27.858Z,23.46
2018-09-04T07:41:08.384Z,23.6
2018-09-04T07:41:48.967Z,23.61
2018-09-04T07:42:29.420Z,23.72
2018-09-04T07:43:09.956Z,23.63
2018-09-04T07:43:50.472Z,23.6
2018-09-04T07:44:30.993Z,23.48
2018-09-04T07:45:11.505Z,23.61
2018-09-04T07:45:52.036Z,23.58
2018-09-04T07:46:32.538Z,23.69
2018-09-04T07:47:13.117Z,23.7
2018-09-04T07:47:53.636Z,23.75
2018-09-04T07:48:34.169Z,23.79
2018-09-04T07:49:14.744Z,23.8
2018-09-04T07:49:55.265Z,23.98
2018-09-04T07:50:35.827Z,24.03
2018-09-04T07:51:16.388Z,24.1
2018-09-04T07:51:56.888Z,24.1
2018-09-04T07:52:37.416Z,24.12
2018-09-04T07:53:17.937Z,24.16
2018-09-04T07:53:58.488Z,24.15
2018-09-04T07:54:39.004Z,24.15
2018-09-04T07:55:20.314Z,24.18
2018-09-04T07:56:00.310Z,24.27
2018-09-04T07:56:40.852Z,24.13
2018-09-04T07:57:21.373Z,24.24
2018-09-04T07:58:01.894Z,24.24
2018-09-04T07:58:42.422Z,24.2
2018-09-04T07:59:22.950Z,24.28
2018-09-04T08:00:03.487Z,24.28
2018-09-04T08:00:43.997Z,24.24
2018-09-04T08:01:24.517Z,24.24
2018-09-04T08:02:05.128Z,24.25
2018-09-04T08:02:45.658Z,24.22
2018-09-04T08:03:26.154Z,24.28
2018-09-04T08:04:06.685Z,24.31
2018-09-04T08:04:47.208Z,24.28
2018-09-04T08:05:27.936Z,24.22
2018-09-04T08:06:08.509Z,24.21
2018-09-04T08:06:49.019Z,24.25
2018-09-04T08:07:29.540Z,24.25
2018-09-04T08:08:10.060Z,24.3
2018-09-04T08:08:50.728Z,24.2
2018-09-04T08:09:31.287Z,24.25
2018-09-04T08:10:11.879Z,24.25
2018-09-04T08:10:52.373Z,24.25
2018-09-04T08:11:32.924Z,24.28
2018-09-04T08:12:13.477Z,24.22
2018-09-04T08:12:53.985Z,24.31
2018-09-04T08:13:34.523Z,24.28
2018-09-04T08:14:15.072Z,24.45
2018-09-04T08:14:55.595Z,24.3
2018-09-04T08:15:36.185Z,24.39
2018-09-04T08:16:16.792Z,24.39
2018-09-04T08:16:57.244Z,24.37
2018-09-04T08:17:38.820Z,24.37
2018-09-04T08:18:18.807Z,24.31
2018-09-04T08:18:59.305Z,24.35
2018-09-04T08:19:39.834Z,24.35
2018-09-04T08:20:20.399Z,24.4
2018-09-04T08:21:00.975Z,24.37
2018-09-04T08:21:41.411Z,24.46
2018-09-04T08:22:21.936Z,24.43
2018-09-04T08:23:02.455Z,24.5
2018-09-04T08:23:42.984Z,24.47
2018-09-04T08:24:23.492Z,24.52
2018-09-04T08:25:04.016Z,24.49
2018-09-04T08:25:44.616Z,24.47
2018-09-04T08:26:25.183Z,24.45
2018-09-04T08:27:05.719Z,24.45
2018-09-04T08:27:46.389Z,24.46
2018-09-04T08:28:26.988Z,24.45
2018-09-04T08:29:07.642Z,24.49
2018-09-04T08:30:45.499Z,24.35
2018-09-04T08:31:25.993Z,24.42
2018-09-04T08:32:06.529Z,24.46
2018-09-04T08:32:47.230Z,24.45
2018-09-04T08:33:27.676Z,24.55
2018-09-04T08:34:08.206Z,24.57
2018-09-04T08:34:48.768Z,24.57
2018-09-04T08:35:29.282Z,24.64
2018-09-04T08:36:09.800Z,24.65
2018-09-04T08:36:50.395Z,24.78
2018-09-04T08:37:30.919Z,24.76
2018-09-04T08:38:11.440Z,24.8
2018-09-04T08:38:52.602Z,24.77
2018-09-04T08:39:32.688Z,24.61
2018-09-04T08:40:13.316Z,24.8
2018-09-04T08:40:53.845Z,24.67
2018-09-04T08:41:34.383Z,24.65
2018-09-04T08:42:14.919Z,24.76
2018-09-04T08:42:55.509Z,24.78
2018-09-04T08:43:36.067Z,24.8
2018-09-04T08:44:16.586Z,24.78
2018-09-04T08:44:57.111Z,24.78
2018-09-04T08:45:37.652Z,24.8
2018-09-04T08:46:18.160Z,24.68
2018-09-04T08:46:58.689Z,24.78
2018-09-04T08:47:39.280Z,24.83
2018-09-04T08:48:19.784Z,24.78
2018-09-04T08:49:00.348Z,24.81
2018-09-04T08:49:40.880Z,24.81
2018-09-04T08:50:21.643Z,24.9
2018-09-04T08:51:02.228Z,24.87